Time;durP1;ratioP1;P1;durP2;ratioP2;P2;SDS_P1;SDS_P2;PMS_P1;PMS_P2;Temp;Humidity;BMP_temperature;BMP_pressure;BME280_temperature;BME280_humidity;BME280_pressure;Samples;Min_cycle;Max_cycle;Signal;HPM_P1;HPM_P2
2021/07/17 00:01:31;;;;;;;;;;;25.70;54.70;;;;;;5084030;28;20310;-64
2021/07/17 00:03:56;;;;;;;;;;;25.70;54.70;;;;;;5087146;28;20370;-65
2021/07/17 00:06:22;;;;;;;;;;;25.70;54.70;;;;;;5088433;28;19908;-64
2021/07/17 00:08:50;;;;;;;;;;;25.70;54.70;;;;;;5085306;28;20727;-62
2021/07/17 00:11:16;;;;;;;;;;;25.70;54.70;;;;;;5082970;28;19949;-65
2021/07/17 00:13:41;;;;;;;;;;;25.70;54.70;;;;;;5063887;28;20001;-64
2021/07/17 00:16:07;;;;;;;;;;;25.70;54.70;;;;;;5065590;28;20385;-66
2021/07/17 00:18:32;;;;;;;;;;;25.70;54.70;;;;;;5080970;28;20105;-63
2021/07/17 00:20:58;;;;;;;;;;;25.70;54.70;;;;;;5063225;28;19919;-62
2021/07/17 00:23:23;;;;;;;;;;;25.70;54.70;;;;;;5085773;28;20052;-63
2021/07/17 00:25:53;;;;;;;;;;;25.60;54.60;;;;;;5085803;28;19953;-64
2021/07/17 00:28:19;;;;;;;;;;;25.70;54.70;;;;;;5079673;28;20278;-62
2021/07/17 00:30:44;;;;;;;;;;;25.70;54.70;;;;;;5082751;28;19915;-62
2021/07/17 00:33:10;;;;;;;;;;;25.60;54.60;;;;;;5084515;28;19908;-61
2021/07/17 00:35:35;;;;;;;;;;;25.70;55.20;;;;;;5082036;28;19922;-62
2021/07/17 00:38:01;;;;;;;;;;;25.60;54.60;;;;;;5094197;28;20045;-62
2021/07/17 00:40:26;;;;;;;;;;;25.60;54.60;;;;;;5082893;28;20335;-62
2021/07/17 00:42:52;;;;;;;;;;;25.70;54.70;;;;;;5079138;28;20054;-62
2021/07/17 00:45:21;;;;;;;;;;;25.60;54.60;;;;;;5070869;28;20214;-62
2021/07/17 00:47:46;;;;;;;;;;;25.60;54.60;;;;;;5084191;28;20055;-62
2021/07/17 00:50:13;;;;;;;;;;;25.70;54.60;;;;;;5074144;28;20117;-63
2021/07/17 00:52:39;;;;;;;;;;;25.60;54.60;;;;;;5066896;28;20117;-62
2021/07/17 00:55:05;;;;;;;;;;;25.60;54.60;;;;;;5087459;28;19996;-63
2021/07/17 00:57:34;;;;;;;;;;;25.60;54.60;;;;;;5077784;28;20010;-63
2021/07/17 01:00:01;;;;;;;;;;;25.60;54.60;;;;;;5080815;28;19908;-64
2021/07/17 01:02:30;;;;;;;;;;;25.60;54.60;;;;;;5083999;28;20469;-64
2021/07/17 01:04:56;;;;;;;;;;;25.60;54.60;;;;;;5094423;28;19911;-63
2021/07/17 01:07:25;;;;;;;;;;;25.60;54.60;;;;;;5067409;28;19912;-63
2021/07/17 01:09:51;;;;;;;;;;;25.60;54.60;;;;;;5083846;28;19976;-64
2021/07/17 01:12:16;;;;;;;;;;;25.60;54.60;;;;;;5084545;28;20347;-62
2021/07/17 01:14:42;;;;;;;;;;;25.60;54.60;;;;;;5089981;28;20323;-63
2021/07/17 01:17:07;;;;;;;;;;;25.60;54.60;;;;;;5089434;28;19908;-63
2021/07/17 01:19:32;;;;;;;;;;;25.60;54.60;;;;;;5081323;28;20006;-63
2021/07/17 01:21:58;;;;;;;;;;;25.60;54.60;;;;;;5080954;28;19991;-64
2021/07/17 01:24:24;;;;;;;;;;;25.60;54.60;;;;;;5087942;28;19912;-63
2021/07/17 01:26:50;;;;;;;;;;;25.60;54.60;;;;;;5088027;28;19923;-63
2021/07/17 01:29:16;;;;;;;;;;;25.60;54.60;;;;;;5084393;28;20354;-62
2021/07/17 01:31:42;;;;;;;;;;;25.60;54.60;;;;;;5083922;28;20421;-62
2021/07/17 01:34:08;;;;;;;;;;;25.60;54.60;;;;;;5082369;28;19919;-63
2021/07/17 01:36:33;;;;;;;;;;;25.60;54.60;;;;;;5085500;28;19908;-62
2021/07/17 01:38:59;;;;;;;;;;;25.60;54.60;;;;;;5082350;28;19968;-62
2021/07/17 01:41:24;;;;;;;;;;;25.50;54.50;;;;;;5084398;28;20076;-64
2021/07/17 01:43:51;;;;;;;;;;;25.60;54.60;;;;;;5085356;28;19915;-63
2021/07/17 01:46:17;;;;;;;;;;;25.60;54.60;;;;;;5084776;28;19912;-63
2021/07/17 01:48:53;;;;;;;;;;;25.50;54.50;;;;;;5078003;28;20038;-64
2021/07/17 01:51:18;;;;;;;;;;;25.60;54.60;;;;;;5073461;28;20344;-63
2021/07/17 01:53:44;;;;;;;;;;;25.50;54.50;;;;;;5071149;28;19908;-63
2021/07/17 01:56:10;;;;;;;;;;;25.60;54.60;;;;;;5085320;28;19927;-63
2021/07/17 01:58:35;;;;;;;;;;;25.50;54.50;;;;;;5082155;28;19916;-65
2021/07/17 02:01:00;;;;;;;;;;;25.50;54.60;;;;;;5096576;28;19912;-65
2021/07/17 02:03:26;;;;;;;;;;;25.50;54.50;;;;;;5092072;28;19915;-64
2021/07/17 02:05:51;;;;;;;;;;;25.50;54.50;;;;;;5087886;28;20003;-62
2021/07/17 02:08:17;;;;;;;;;;;25.50;54.50;;;;;;5083480;28;20528;-62
2021/07/17 02:10:43;;;;;;;;;;;25.50;54.50;;;;;;5084755;28;20460;-63
2021/07/17 02:13:09;;;;;;;;;;;25.50;54.50;;;;;;5085015;28;19976;-63
2021/07/17 02:15:36;;;;;;;;;;;25.50;54.60;;;;;;5090387;28;19908;-63
2021/07/17 02:18:02;;;;;;;;;;;25.50;54.60;;;;;;5084291;28;19912;-63
2021/07/17 02:20:28;;;;;;;;;;;25.50;54.60;;;;;;5079400;28;20295;-64
2021/07/17 02:22:54;;;;;;;;;;;25.50;54.60;;;;;;5083169;28;19927;-63
2021/07/17 02:25:20;;;;;;;;;;;25.50;54.60;;;;;;5085874;28;20331;-63
2021/07/17 02:27:45;;;;;;;;;;;25.50;54.60;;;;;;5079764;28;20308;-62
2021/07/17 02:30:11;;;;;;;;;;;25.50;54.60;;;;;;5080672;28;19944;-63
2021/07/17 02:32:36;;;;;;;;;;;25.50;54.60;;;;;;5077665;28;20230;-63
2021/07/17 02:35:03;;;;;;;;;;;25.40;54.50;;;;;;5076190;28;19931;-62
2021/07/17 02:37:29;;;;;;;;;;;25.50;54.60;;;;;;5084434;28;19992;-65
2021/07/17 02:39:54;;;;;;;;;;;25.50;54.60;;;;;;5083823;28;19950;-63
2021/07/17 02:42:20;;;;;;;;;;;25.40;54.50;;;;;;5082071;28;19912;-63
2021/07/17 02:44:46;;;;;;;;;;;25.50;54.60;;;;;;5081586;28;19981;-62
2021/07/17 02:47:12;;;;;;;;;;;25.50;54.60;;;;;;5080969;28;20019;-62
2021/07/17 02:49:37;;;;;;;;;;;25.50;55.10;;;;;;5083320;28;20034;-63
2021/07/17 02:52:03;;;;;;;;;;;25.40;54.50;;;;;;5084452;28;20426;-64
2021/07/17 02:54:29;;;;;;;;;;;25.40;54.50;;;;;;5084935;28;20297;-63
2021/07/17 02:56:54;;;;;;;;;;;25.40;54.50;;;;;;5086934;28;19988;-63
2021/07/17 02:59:20;;;;;;;;;;;25.50;55.10;;;;;;5086724;28;19920;-63
2021/07/17 03:01:45;;;;;;;;;;;25.40;54.50;;;;;;5085259;28;19912;-64
2021/07/17 03:04:10;;;;;;;;;;;25.40;54.50;;;;;;5084054;28;19944;-64
2021/07/17 03:06:36;;;;;;;;;;;25.40;54.50;;;;;;5062785;28;20492;-64
2021/07/17 03:09:04;;;;;;;;;;;25.40;54.50;;;;;;5081689;28;19915;-62
2021/07/17 03:11:33;;;;;;;;;;;25.40;54.50;;;;;;5079010;28;20258;-63
2021/07/17 03:13:59;;;;;;;;;;;25.40;54.50;;;;;;5082445;28;19908;-63
2021/07/17 03:16:25;;;;;;;;;;;25.40;54.50;;;;;;5085491;28;20007;-63
2021/07/17 03:18:51;;;;;;;;;;;25.40;54.50;;;;;;5085139;28;20274;-63
2021/07/17 03:21:16;;;;;;;;;;;25.40;54.50;;;;;;5089773;28;19914;-62
2021/07/17 03:23:42;;;;;;;;;;;25.40;54.50;;;;;;5088530;28;19998;-63
2021/07/17 03:26:07;;;;;;;;;;;25.40;54.60;;;;;;5084780;28;19911;-63
2021/07/17 03:28:33;;;;;;;;;;;25.40;54.60;;;;;;5083270;28;19916;-63
2021/07/17 03:30:58;;;;;;;;;;;25.40;54.50;;;;;;5089605;28;19920;-63
2021/07/17 03:33:24;;;;;;;;;;;25.40;54.60;;;;;;5072070;28;19912;-64
2021/07/17 03:35:49;;;;;;;;;;;25.40;54.50;;;;;;5071081;28;19912;-64
2021/07/17 03:38:15;;;;;;;;;;;25.40;54.60;;;;;;5078064;28;20319;-64
2021/07/17 03:40:40;;;;;;;;;;;25.40;54.60;;;;;;5082290;28;19962;-63
2021/07/17 03:43:05;;;;;;;;;;;25.40;54.60;;;;;;5079597;28;19924;-62
2021/07/17 03:45:31;;;;;;;;;;;25.40;54.60;;;;;;5083441;28;19911;-63
2021/07/17 03:47:56;;;;;;;;;;;25.40;54.60;;;;;;5081100;28;19971;-64
2021/07/17 03:50:23;;;;;;;;;;;25.40;54.60;;;;;;5068522;28;20271;-64
2021/07/17 03:52:48;;;;;;;;;;;25.40;54.60;;;;;;5061889;28;20001;-62
2021/07/17 03:55:14;;;;;;;;;;;25.40;54.60;;;;;;5083517;28;20382;-64
2021/07/17 03:57:39;;;;;;;;;;;25.30;54.50;;;;;;5087202;28;19923;-63
2021/07/17 04:00:05;;;;;;;;;;;25.40;54.60;;;;;;5076655;28;19912;-63
2021/07/17 04:02:39;;;;;;;;;;;25.30;54.60;;;;;;5083684;28;19916;-63
2021/07/17 04:05:05;;;;;;;;;;;25.40;54.60;;;;;;5086255;28;19916;-63
2021/07/17 04:07:30;;;;;;;;;;;25.40;54.60;;;;;;5062938;28;19938;-65
2021/07/17 04:09:56;;;;;;;;;;;25.30;54.60;;;;;;5049081;28;19959;-65
2021/07/17 04:12:21;;;;;;;;;;;25.30;54.60;;;;;;5081848;28;20379;-66
2021/07/17 04:14:47;;;;;;;;;;;25.30;54.70;;;;;;5082104;28;19961;-64
2021/07/17 04:17:12;;;;;;;;;;;25.30;54.90;;;;;;5080608;28;20003;-65
2021/07/17 04:19:38;;;;;;;;;;;25.20;55.30;;;;;;5095538;28;20354;-66
2021/07/17 04:22:03;;;;;;;;;;;25.10;55.40;;;;;;5090824;28;19922;-65
2021/07/17 04:24:29;;;;;;;;;;;25.00;55.80;;;;;;5081911;28;19967;-65
2021/07/17 04:26:54;;;;;;;;;;;24.90;56.10;;;;;;5085271;28;20480;-65
2021/07/17 04:29:20;;;;;;;;;;;24.80;56.30;;;;;;5064480;28;19908;-65
2021/07/17 04:31:45;;;;;;;;;;;24.70;56.50;;;;;;5087191;28;20254;-65
2021/07/17 04:34:11;;;;;;;;;;;24.70;56.60;;;;;;5078589;28;20083;-65
2021/07/17 04:36:36;;;;;;;;;;;24.70;56.80;;;;;;5072200;28;20649;-65
2021/07/17 04:39:03;;;;;;;;;;;24.60;57.00;;;;;;5078304;28;19908;-66
2021/07/17 04:41:28;;;;;;;;;;;24.60;57.00;;;;;;5085815;28;19911;-66
2021/07/17 04:43:54;;;;;;;;;;;24.60;57.10;;;;;;5068852;28;19958;-63
2021/07/17 04:46:19;;;;;;;;;;;24.50;57.30;;;;;;5072254;28;19919;-65
2021/07/17 04:48:45;;;;;;;;;;;24.50;57.20;;;;;;5057365;28;20109;-65
2021/07/17 04:51:10;;;;;;;;;;;24.60;57.20;;;;;;5084459;28;20702;-63
2021/07/17 04:53:36;;;;;;;;;;;24.60;57.10;;;;;;5082984;28;19995;-64
2021/07/17 04:56:01;;;;;;;;;;;24.60;56.90;;;;;;5086859;28;20370;-62
2021/07/17 04:58:27;;;;;;;;;;;24.60;56.70;;;;;;5076333;28;19920;-64
2021/07/17 05:00:52;;;;;;;;;;;24.60;56.60;;;;;;5076547;28;20321;-65
2021/07/17 05:03:18;;;;;;;;;;;24.70;56.60;;;;;;5081426;28;19916;-64
2021/07/17 05:05:43;;;;;;;;;;;24.70;56.50;;;;;;5073992;28;20252;-64
2021/07/17 05:08:09;;;;;;;;;;;24.70;56.30;;;;;;5076591;28;20458;-65
2021/07/17 05:10:34;;;;;;;;;;;24.70;56.30;;;;;;5068204;28;20011;-64
2021/07/17 05:13:08;;;;;;;;;;;24.70;56.30;;;;;;5082446;28;19933;-63
2021/07/17 05:15:34;;;;;;;;;;;24.70;56.20;;;;;;5072670;28;19912;-65
2021/07/17 05:17:59;;;;;;;;;;;24.70;56.20;;;;;;5082411;28;20304;-65
2021/07/17 05:20:25;;;;;;;;;;;24.70;56.10;;;;;;5079923;28;19951;-65
2021/07/17 05:22:50;;;;;;;;;;;24.70;56.10;;;;;;5080359;28;19924;-63
2021/07/17 05:25:16;;;;;;;;;;;24.70;56.00;;;;;;5083433;28;19916;-63
2021/07/17 05:27:41;;;;;;;;;;;24.70;56.00;;;;;;5081244;28;19920;-64
2021/07/17 05:30:07;;;;;;;;;;;24.70;55.90;;;;;;5084027;28;20326;-63
2021/07/17 05:32:33;;;;;;;;;;;24.70;55.90;;;;;;5080375;28;20380;-65
2021/07/17 05:34:58;;;;;;;;;;;24.70;55.90;;;;;;5084694;28;19912;-63
2021/07/17 05:37:25;;;;;;;;;;;24.70;55.80;;;;;;5077441;28;19912;-63
2021/07/17 05:39:51;;;;;;;;;;;24.70;55.80;;;;;;5084242;28;19918;-63
2021/07/17 05:42:16;;;;;;;;;;;24.70;55.80;;;;;;5085135;28;19908;-62
2021/07/17 05:44:42;;;;;;;;;;;24.70;55.80;;;;;;5083938;28;20365;-65
2021/07/17 05:47:08;;;;;;;;;;;24.70;55.80;;;;;;5065268;28;19911;-63
2021/07/17 05:49:33;;;;;;;;;;;24.70;55.80;;;;;;5074662;28;20499;-64
2021/07/17 05:51:59;;;;;;;;;;;24.70;55.80;;;;;;5083475;28;20688;-64
2021/07/17 05:54:24;;;;;;;;;;;24.70;55.70;;;;;;5082522;28;20552;-64
2021/07/17 05:56:50;;;;;;;;;;;24.70;55.70;;;;;;5075041;28;19916;-63
2021/07/17 05:59:15;;;;;;;;;;;24.70;55.70;;;;;;5084053;28;19912;-63
2021/07/17 06:01:40;;;;;;;;;;;24.70;55.70;;;;;;5084279;28;19999;-62
2021/07/17 06:04:08;;;;;;;;;;;24.70;55.70;;;;;;5084849;28;20383;-63
2021/07/17 06:06:33;;;;;;;;;;;24.80;55.70;;;;;;5086516;28;20352;-64
2021/07/17 06:08:59;;;;;;;;;;;24.70;55.70;;;;;;5081405;28;19922;-64
2021/07/17 06:11:24;;;;;;;;;;;24.70;55.70;;;;;;5079951;28;19912;-64
2021/07/17 06:13:50;;;;;;;;;;;24.70;55.70;;;;;;5085259;28;20347;-63
2021/07/17 06:16:15;;;;;;;;;;;24.70;55.60;;;;;;5086516;28;19911;-63
2021/07/17 06:18:41;;;;;;;;;;;24.70;55.70;;;;;;5077916;28;20224;-62
2021/07/17 06:21:06;;;;;;;;;;;24.70;55.70;;;;;;5095584;28;19919;-65
2021/07/17 06:23:32;;;;;;;;;;;24.70;55.70;;;;;;5064729;28;19951;-63
2021/07/17 06:25:57;;;;;;;;;;;24.70;55.70;;;;;;5094302;28;19989;-63
2021/07/17 06:28:23;;;;;;;;;;;24.70;55.70;;;;;;5082848;28;19928;-63
2021/07/17 06:30:48;;;;;;;;;;;24.70;56.20;;;;;;5081650;28;19916;-63
2021/07/17 06:33:14;;;;;;;;;;;24.70;55.60;;;;;;5081604;28;19912;-63
2021/07/17 06:35:39;;;;;;;;;;;24.70;55.60;;;;;;5089071;28;20354;-64
2021/07/17 06:38:05;;;;;;;;;;;24.70;55.60;;;;;;5084151;28;19916;-65
2021/07/17 06:40:30;;;;;;;;;;;24.70;55.70;;;;;;5082943;28;19912;-63
2021/07/17 06:42:56;;;;;;;;;;;24.70;55.70;;;;;;5079814;28;19916;-63
2021/07/17 06:45:21;;;;;;;;;;;24.70;55.60;;;;;;5068548;28;20020;-64
2021/07/17 06:47:47;;;;;;;;;;;24.70;55.60;;;;;;5086072;28;19920;-62
2021/07/17 06:50:14;;;;;;;;;;;24.70;55.70;;;;;;5084809;28;19965;-64
2021/07/17 06:52:39;;;;;;;;;;;24.70;55.60;;;;;;5092808;28;20010;-64
2021/07/17 06:55:06;;;;;;;;;;;24.70;55.60;;;;;;5089884;28;19907;-62
2021/07/17 06:57:37;;;;;;;;;;;24.70;55.60;;;;;;5084873;28;19977;-63
2021/07/17 07:00:04;;;;;;;;;;;24.70;55.60;;;;;;5083011;28;19958;-63
2021/07/17 07:02:29;;;;;;;;;;;24.70;55.60;;;;;;5081830;28;19912;-63
2021/07/17 07:04:54;;;;;;;;;;;24.70;55.60;;;;;;5087213;28;19912;-62
2021/07/17 07:07:20;;;;;;;;;;;24.70;55.60;;;;;;5083449;28;19912;-65
2021/07/17 07:09:45;;;;;;;;;;;24.70;55.60;;;;;;5085444;28;19912;-62
2021/07/17 07:12:11;;;;;;;;;;;24.70;55.60;;;;;;5068864;28;20375;-61
2021/07/17 07:14:36;;;;;;;;;;;24.70;55.60;;;;;;5088928;28;20093;-65
2021/07/17 07:17:02;;;;;;;;;;;24.70;55.60;;;;;;5074827;28;19942;-63
2021/07/17 07:19:27;;;;;;;;;;;24.70;55.60;;;;;;5078929;28;19992;-62
2021/07/17 07:21:54;;;;;;;;;;;24.70;55.50;;;;;;5074170;28;20299;-63
2021/07/17 07:24:20;;;;;;;;;;;24.80;55.60;;;;;;5084805;28;19939;-63
2021/07/17 07:26:45;;;;;;;;;;;24.70;55.60;;;;;;5086103;28;19916;-63
2021/07/17 07:29:11;;;;;;;;;;;24.80;55.60;;;;;;5085487;28;19911;-63
2021/07/17 07:31:36;;;;;;;;;;;24.70;55.50;;;;;;5078700;28;19920;-63
2021/07/17 07:34:02;;;;;;;;;;;24.70;55.50;;;;;;5083811;28;19912;-63
2021/07/17 07:36:27;;;;;;;;;;;24.70;55.50;;;;;;5085773;28;20007;-62
2021/07/17 07:38:53;;;;;;;;;;;24.80;55.50;;;;;;5083553;28;19999;-64
2021/07/17 07:41:18;;;;;;;;;;;24.70;55.50;;;;;;5082682;28;19996;-63
2021/07/17 07:43:45;;;;;;;;;;;24.80;55.50;;;;;;5081913;28;19908;-63
2021/07/17 07:46:11;;;;;;;;;;;24.80;55.50;;;;;;5086021;28;20464;-63
2021/07/17 07:48:36;;;;;;;;;;;24.80;55.50;;;;;;5081709;28;19943;-65
2021/07/17 07:51:02;;;;;;;;;;;24.80;55.50;;;;;;5081994;28;19923;-63
2021/07/17 07:53:28;;;;;;;;;;;24.80;55.50;;;;;;5079612;28;19931;-64
2021/07/17 07:55:54;;;;;;;;;;;24.80;55.50;;;;;;5085962;28;19929;-63
2021/07/17 07:58:19;;;;;;;;;;;24.70;55.50;;;;;;5065117;28;20336;-63
2021/07/17 08:00:45;;;;;;;;;;;24.80;55.50;;;;;;5084347;28;19923;-65
2021/07/17 08:03:10;;;;;;;;;;;24.80;55.50;;;;;;5078186;28;19955;-63
2021/07/17 08:05:36;;;;;;;;;;;24.80;55.50;;;;;;5084505;28;19916;-64
2021/07/17 08:08:01;;;;;;;;;;;24.80;55.50;;;;;;5067729;28;19920;-64
2021/07/17 08:10:27;;;;;;;;;;;24.80;55.50;;;;;;5069037;28;19935;-62
2021/07/17 08:12:52;;;;;;;;;;;24.80;55.40;;;;;;5079733;28;20067;-63
2021/07/17 08:15:18;;;;;;;;;;;24.80;55.50;;;;;;5086886;28;20012;-64
2021/07/17 08:17:43;;;;;;;;;;;24.80;55.50;;;;;;5084230;28;19980;-64
2021/07/17 08:20:10;;;;;;;;;;;24.80;55.50;;;;;;5081773;28;19912;-63
2021/07/17 08:22:36;;;;;;;;;;;24.80;55.40;;;;;;5087239;28;19925;-64
2021/07/17 08:25:02;;;;;;;;;;;24.80;55.40;;;;;;5062385;28;19915;-63
2021/07/17 08:27:28;;;;;;;;;;;24.80;55.40;;;;;;5084946;28;20377;-64
2021/07/17 08:29:54;;;;;;;;;;;24.80;55.40;;;;;;5081585;28;19958;-63
2021/07/17 08:32:19;;;;;;;;;;;24.80;55.40;;;;;;5081122;28;19985;-63
2021/07/17 08:34:45;;;;;;;;;;;24.80;55.40;;;;;;5085098;28;19968;-64
2021/07/17 08:37:10;;;;;;;;;;;24.80;55.40;;;;;;5084551;28;19909;-64
2021/07/17 08:39:36;;;;;;;;;;;24.80;55.40;;;;;;5076242;28;19974;-64
2021/07/17 08:42:02;;;;;;;;;;;24.80;55.40;;;;;;5087715;28;20006;-64
2021/07/17 08:44:28;;;;;;;;;;;24.80;55.40;;;;;;5088060;28;19916;-64
2021/07/17 08:46:54;;;;;;;;;;;24.90;55.50;;;;;;5083820;28;20032;-64
2021/07/17 08:49:21;;;;;;;;;;;24.80;55.40;;;;;;5082751;28;19919;-64
2021/07/17 08:51:46;;;;;;;;;;;24.80;55.40;;;;;;5086622;28;19923;-63
2021/07/17 08:54:12;;;;;;;;;;;24.80;55.40;;;;;;5067224;28;19996;-63
2021/07/17 08:56:38;;;;;;;;;;;24.80;55.90;;;;;;5086812;28;19912;-64
2021/07/17 08:59:04;;;;;;;;;;;24.80;55.30;;;;;;5086215;28;19965;-63
2021/07/17 09:01:30;;;;;;;;;;;24.80;55.30;;;;;;5086919;28;19916;-64
2021/07/17 09:03:55;;;;;;;;;;;24.80;55.40;;;;;;5084528;28;19934;-64
2021/07/17 09:06:21;;;;;;;;;;;24.80;55.40;;;;;;5081726;28;19923;-63
2021/07/17 09:08:48;;;;;;;;;;;24.80;55.40;;;;;;5083052;28;19916;-64
2021/07/17 09:11:13;;;;;;;;;;;24.80;55.40;;;;;;5086524;28;19923;-65
2021/07/17 09:13:39;;;;;;;;;;;24.90;55.40;;;;;;5083619;28;19912;-63
2021/07/17 09:16:06;;;;;;;;;;;24.90;55.40;;;;;;5082067;28;20720;-63
2021/07/17 09:18:46;;;;;;;;;;;24.80;55.30;;;;;;5074416;28;19912;-64
2021/07/17 09:21:23;;;;;;;;;;;24.80;55.30;;;;;;5076730;28;19927;-64
2021/07/17 09:23:51;;;;;;;;;;;24.90;55.40;;;;;;5071213;28;19913;-65
2021/07/17 09:26:19;;;;;;;;;;;24.90;55.30;;;;;;5072313;28;20310;-64
2021/07/17 09:28:54;;;;;;;;;;;24.90;55.30;;;;;;5088268;28;19922;-64
2021/07/17 09:31:20;;;;;;;;;;;24.90;55.30;;;;;;5080702;28;20394;-63
2021/07/17 09:33:48;;;;;;;;;;;24.90;55.30;;;;;;5085301;28;19912;-64
2021/07/17 09:36:15;;;;;;;;;;;24.90;55.20;;;;;;5087000;28;20053;-64
2021/07/17 09:38:47;;;;;;;;;;;24.90;55.20;;;;;;5088737;28;19923;-65
2021/07/17 09:41:13;;;;;;;;;;;24.90;55.20;;;;;;5080059;28;19914;-64
2021/07/17 09:43:40;;;;;;;;;;;24.90;55.10;;;;;;5059832;28;20259;-64
2021/07/17 09:46:15;;;;;;;;;;;24.90;55.20;;;;;;5078183;28;19951;-64
2021/07/17 09:48:44;;;;;;;;;;;24.90;55.20;;;;;;5079872;28;19935;-63
2021/07/17 09:51:10;;;;;;;;;;;24.90;55.20;;;;;;5082470;28;19915;-64
2021/07/17 09:53:43;;;;;;;;;;;24.90;55.20;;;;;;5081147;28;21494;-64
2021/07/17 09:56:13;;;;;;;;;;;24.90;55.10;;;;;;5076934;28;19935;-65
2021/07/17 09:58:39;;;;;;;;;;;25.00;55.10;;;;;;5077867;28;19955;-64
2021/07/17 10:01:22;;;;;;;;;;;25.00;55.10;;;;;;5079419;28;19966;-64
2021/07/17 10:03:49;;;;;;;;;;;25.00;55.10;;;;;;5079430;28;19959;-64
2021/07/17 10:06:31;;;;;;;;;;;25.00;55.10;;;;;;5078297;28;19939;-64
2021/07/17 10:08:57;;;;;;;;;;;25.00;55.10;;;;;;5086161;28;19947;-65
2021/07/17 10:11:24;;;;;;;;;;;25.00;55.10;;;;;;5084906;28;19942;-65
2021/07/17 10:13:50;;;;;;;;;;;25.00;55.10;;;;;;5083455;28;19914;-63
2021/07/17 10:16:20;;;;;;;;;;;25.00;55.10;;;;;;5082419;28;19911;-64
2021/07/17 10:18:46;;;;;;;;;;;25.00;55.10;;;;;;5083722;28;20030;-64
2021/07/17 10:21:12;;;;;;;;;;;25.00;55.00;;;;;;5084403;28;20413;-64
2021/07/17 10:23:38;;;;;;;;;;;25.00;55.00;;;;;;5084888;28;20370;-64
2021/07/17 10:26:04;;;;;;;;;;;25.00;54.90;;;;;;5084358;28;19916;-64
2021/07/17 10:28:30;;;;;;;;;;;25.00;54.90;;;;;;5086375;28;19927;-64
2021/07/17 10:30:57;;;;;;;;;;;25.00;54.90;;;;;;5064240;28;19931;-64
2021/07/17 10:33:23;;;;;;;;;;;25.00;54.90;;;;;;5082486;28;19912;-63
2021/07/17 10:35:49;;;;;;;;;;;25.00;54.80;;;;;;5085408;28;20014;-63
2021/07/17 10:38:15;;;;;;;;;;;25.00;54.80;;;;;;5078241;28;19922;-64
2021/07/17 10:40:41;;;;;;;;;;;25.00;54.80;;;;;;5087240;28;19916;-64
2021/07/17 10:43:07;;;;;;;;;;;25.00;54.80;;;;;;5088416;28;19965;-64
2021/07/17 10:45:34;;;;;;;;;;;25.00;54.80;;;;;;5081018;28;20002;-63
2021/07/17 10:48:00;;;;;;;;;;;25.10;54.90;;;;;;5089082;28;19916;-63
2021/07/17 10:50:38;;;;;;;;;;;25.10;54.90;;;;;;5087806;28;19912;-65
2021/07/17 10:53:03;;;;;;;;;;;25.10;54.90;;;;;;5084239;28;19916;-65
2021/07/17 10:55:32;;;;;;;;;;;25.00;54.80;;;;;;5086311;28;19966;-65
2021/07/17 10:58:12;;;;;;;;;;;25.10;54.90;;;;;;5065812;28;20367;-64
2021/07/17 11:00:41;;;;;;;;;;;25.10;55.00;;;;;;5084750;28;20032;-65
2021/07/17 11:03:16;;;;;;;;;;;25.10;55.00;;;;;;5073150;28;19947;-64
2021/07/17 11:05:42;;;;;;;;;;;25.10;55.10;;;;;;5083866;28;19911;-65
2021/07/17 11:08:27;;;;;;;;;;;25.10;55.00;;;;;;5084357;28;19963;-65
2021/07/17 11:10:53;;;;;;;;;;;25.10;55.10;;;;;;5085597;28;19912;-66
2021/07/17 11:13:29;;;;;;;;;;;25.10;55.10;;;;;;5082487;28;20745;-65
2021/07/17 11:15:54;;;;;;;;;;;25.10;55.10;;;;;;5083293;28;19954;-65
2021/07/17 11:18:20;;;;;;;;;;;25.10;55.10;;;;;;5078843;28;20338;-65
2021/07/17 11:20:46;;;;;;;;;;;25.10;55.10;;;;;;5084491;28;19962;-65
2021/07/17 11:23:16;;;;;;;;;;;25.10;55.10;;;;;;5079587;28;19951;-65
2021/07/17 11:25:53;;;;;;;;;;;25.10;55.30;;;;;;5072354;28;19999;-65
2021/07/17 11:28:37;;;;;;;;;;;25.10;55.20;;;;;;5084777;28;20023;-65
2021/07/17 11:31:22;;;;;;;;;;;25.10;55.30;;;;;;5084504;28;20457;-65
2021/07/17 11:34:08;;;;;;;;;;;25.10;55.30;;;;;;5061289;28;19959;-64
2021/07/17 11:36:33;;;;;;;;;;;25.10;55.50;;;;;;5072332;28;20015;-65
2021/07/17 11:39:01;;;;;;;;;;;25.10;55.40;;;;;;5085222;28;19994;-65
2021/07/17 11:41:26;;;;;;;;;;;25.10;55.50;;;;;;5089910;28;19930;-66
2021/07/17 11:43:52;;;;;;;;;;;25.10;55.40;;;;;;5084797;28;19912;-64
2021/07/17 11:46:17;;;;;;;;;;;25.10;55.50;;;;;;5082600;28;20835;-65
2021/07/17 11:48:59;;;;;;;;;;;25.10;55.60;;;;;;5083031;28;19934;-64
2021/07/17 11:51:24;;;;;;;;;;;25.10;55.60;;;;;;5083899;28;20852;-63
2021/07/17 11:53:50;;;;;;;;;;;25.10;55.60;;;;;;5084724;28;19908;-64
2021/07/17 11:56:18;;;;;;;;;;;25.10;55.60;;;;;;5075427;28;19913;-66
2021/07/17 11:58:44;;;;;;;;;;;25.10;55.50;;;;;;5080946;28;20041;-65
2021/07/17 12:01:14;;;;;;;;;;;25.10;55.60;;;;;;5083201;28;20355;-65
2021/07/17 12:03:41;;;;;;;;;;;25.10;56.00;;;;;;5087761;28;19912;-65
2021/07/17 12:06:06;;;;;;;;;;;25.10;56.00;;;;;;5082025;28;20014;-65
2021/07/17 12:08:32;;;;;;;;;;;25.10;55.90;;;;;;5053530;28;19999;-65
2021/07/17 12:10:57;;;;;;;;;;;25.20;55.90;;;;;;5079716;28;19916;-65
2021/07/17 12:13:24;;;;;;;;;;;25.20;55.90;;;;;;5080431;28;20334;-65
2021/07/17 12:15:49;;;;;;;;;;;25.20;56.40;;;;;;5077270;28;19911;-65
2021/07/17 12:18:17;;;;;;;;;;;25.20;55.60;;;;;;5063966;28;20285;-65
2021/07/17 12:20:44;;;;;;;;;;;25.20;55.70;;;;;;5054275;28;19995;-66
2021/07/17 12:23:13;;;;;;;;;;;25.10;55.70;;;;;;5080404;28;19912;-66
2021/07/17 12:25:40;;;;;;;;;;;25.10;55.70;;;;;;5077286;28;19907;-65
2021/07/17 12:28:07;;;;;;;;;;;25.10;55.70;;;;;;5083651;28;19915;-65
2021/07/17 12:30:34;;;;;;;;;;;25.20;55.60;;;;;;5083206;28;20533;-65
2021/07/17 12:33:12;;;;;;;;;;;25.20;55.70;;;;;;5089555;28;19911;-65
2021/07/17 12:35:38;;;;;;;;;;;25.20;55.80;;;;;;5073218;28;20370;-66
2021/07/17 12:38:36;;;;;;;;;;;25.10;55.80;;;;;;5054958;28;19919;-65
2021/07/17 12:41:03;;;;;;;;;;;25.20;55.60;;;;;;5057241;28;20611;-64
2021/07/17 12:43:33;;;;;;;;;;;25.20;55.70;;;;;;5079378;28;19912;-65
2021/07/17 12:46:07;;;;;;;;;;;25.20;55.70;;;;;;5081366;28;20306;-65
2021/07/17 12:48:55;;;;;;;;;;;25.20;56.60;;;;;;5065908;28;19920;-65
2021/07/17 12:51:34;;;;;;;;;;;25.20;55.80;;;;;;5054856;28;20341;-64
2021/07/17 12:54:01;;;;;;;;;;;25.20;55.80;;;;;;5084123;28;19908;-65
2021/07/17 12:56:29;;;;;;;;;;;25.20;55.30;;;;;;5083062;28;19916;-65
2021/07/17 12:58:55;;;;;;;;;;;25.20;55.30;;;;;;5084746;28;19908;-65
2021/07/17 13:01:21;;;;;;;;;;;25.20;55.30;;;;;;5060476;28;20295;-66
2021/07/17 13:03:46;;;;;;;;;;;25.20;55.20;;;;;;5082709;28;19908;-66
2021/07/17 13:06:14;;;;;;;;;;;25.20;55.20;;;;;;5074819;28;20285;-64
2021/07/17 13:08:40;;;;;;;;;;;25.20;55.20;;;;;;5067737;28;19916;-64
2021/07/17 13:11:13;;;;;;;;;;;25.20;55.20;;;;;;5077440;28;19992;-65
2021/07/17 13:13:39;;;;;;;;;;;25.20;55.20;;;;;;5068656;28;19919;-65
2021/07/17 13:16:04;;;;;;;;;;;25.20;55.30;;;;;;5087184;28;19908;-64
2021/07/17 13:18:31;;;;;;;;;;;25.20;55.30;;;;;;5085060;28;19972;-65
2021/07/17 13:21:08;;;;;;;;;;;25.20;55.30;;;;;;5064361;28;19919;-65
2021/07/17 13:23:55;;;;;;;;;;;25.20;55.30;;;;;;5083407;28;19934;-65
2021/07/17 13:26:25;;;;;;;;;;;25.10;55.40;;;;;;5087250;28;19908;-64
2021/07/17 13:28:52;;;;;;;;;;;25.20;55.40;;;;;;5075212;28;19919;-65
2021/07/17 13:31:34;;;;;;;;;;;25.20;55.40;;;;;;5081952;28;20331;-65
2021/07/17 13:34:11;;;;;;;;;;;25.20;55.50;;;;;;5084139;28;19909;-65
2021/07/17 13:36:50;;;;;;;;;;;25.20;55.50;;;;;;5078713;28;20274;-65
2021/07/17 13:39:16;;;;;;;;;;;25.20;55.50;;;;;;5080968;28;19912;-65
2021/07/17 13:41:41;;;;;;;;;;;25.20;55.50;;;;;;5081790;28;19942;-64
2021/07/17 13:44:14;;;;;;;;;;;25.20;55.50;;;;;;5085289;28;20221;-65
2021/07/17 13:46:40;;;;;;;;;;;25.20;55.60;;;;;;5084406;28;19999;-65
2021/07/17 13:49:13;;;;;;;;;;;25.20;55.60;;;;;;5049698;28;19927;-65
2021/07/17 13:51:38;;;;;;;;;;;25.20;55.60;;;;;;5060038;28;19916;-65
2021/07/17 13:54:04;;;;;;;;;;;25.20;55.60;;;;;;5082540;28;19931;-64
2021/07/17 13:56:29;;;;;;;;;;;25.20;55.60;;;;;;5083030;28;19948;-65
2021/07/17 13:59:01;;;;;;;;;;;25.30;55.80;;;;;;5084458;28;20270;-65
2021/07/17 14:01:30;;;;;;;;;;;25.20;55.70;;;;;;5083236;28;19989;-65
2021/07/17 14:03:56;;;;;;;;;;;25.20;55.80;;;;;;5067739;28;19916;-65
2021/07/17 14:06:22;;;;;;;;;;;25.30;55.90;;;;;;5074021;28;19947;-64
2021/07/17 14:08:47;;;;;;;;;;;25.20;55.80;;;;;;5083024;28;19912;-64
2021/07/17 14:11:14;;;;;;;;;;;25.30;56.00;;;;;;5084879;28;19912;-65
2021/07/17 14:13:40;;;;;;;;;;;25.20;55.90;;;;;;5086298;28;19960;-65
2021/07/17 14:16:06;;;;;;;;;;;25.20;55.90;;;;;;5087100;28;20355;-64